sensor_id;sensor_type;location;lat;lon;timestamp;temperature;humidity
59771;DHT22;45649;53.014;6.600;2022-09-09T00:00:44;16.30;92.70
59771;DHT22;45649;53.014;6.600;2022-09-09T00:03:22;16.40;92.60
59771;DHT22;45649;53.014;6.600;2022-09-09T00:06:03;16.30;92.80
59771;DHT22;45649;53.014;6.600;2022-09-09T00:11:26;16.20;92.60
59771;DHT22;45649;53.014;6.600;2022-09-09T00:13:55;16.30;92.60
59771;DHT22;45649;53.014;6.600;2022-09-09T00:16:25;16.20;92.50
59771;DHT22;45649;53.014;6.600;2022-09-09T00:21:18;16.30;92.50
59771;DHT22;45649;53.014;6.600;2022-09-09T00:23:53;16.20;92.70
59771;DHT22;45649;53.014;6.600;2022-09-09T00:26:44;16.20;92.70
59771;DHT22;45649;53.014;6.600;2022-09-09T00:29:39;16.20;92.50
59771;DHT22;45649;53.014;6.600;2022-09-09T00:32:16;16.20;92.60
59771;DHT22;45649;53.014;6.600;2022-09-09T00:35:17;16.20;92.50
59771;DHT22;45649;53.014;6.600;2022-09-09T00:37:45;16.10;92.80
59771;DHT22;45649;53.014;6.600;2022-09-09T00:40:31;16.10;92.50
59771;DHT22;45649;53.014;6.600;2022-09-09T00:54:40;16.10;92.30
59771;DHT22;45649;53.014;6.600;2022-09-09T00:57:26;16.10;92.50
59771;DHT22;45649;53.014;6.600;2022-09-09T01:00:17;16.10;92.40
59771;DHT22;45649;53.014;6.600;2022-09-09T01:09:29;16.00;92.40
59771;DHT22;45649;53.014;6.600;2022-09-09T01:17:14;16.00;92.10
59771;DHT22;45649;53.014;6.600;2022-09-09T01:19:54;16.00;92.20
59771;DHT22;45649;53.014;6.600;2022-09-09T01:28:00;15.90;92.30
59771;DHT22;45649;53.014;6.600;2022-09-09T01:30:28;15.90;92.30
59771;DHT22;45649;53.014;6.600;2022-09-09T01:32:57;15.80;92.30
59771;DHT22;45649;53.014;6.600;2022-09-09T01:35:40;15.90;92.30
59771;DHT22;45649;53.014;6.600;2022-09-09T01:38:08;15.80;92.40
59771;DHT22;45649;53.014;6.600;2022-09-09T01:40:34;16.00;92.50
59771;DHT22;45649;53.014;6.600;2022-09-09T01:43:00;15.90;92.50
59771;DHT22;45649;53.014;6.600;2022-09-09T01:45:26;15.80;92.70
59771;DHT22;45649;53.014;6.600;2022-09-09T01:47:52;15.80;92.20
59771;DHT22;45649;53.014;6.600;2022-09-09T01:50:19;15.80;92.50
59771;DHT22;45649;53.014;6.600;2022-09-09T01:52:48;15.70;92.30
59771;DHT22;45649;53.014;6.600;2022-09-09T01:55:15;15.70;92.30
59771;DHT22;45649;53.014;6.600;2022-09-09T02:00:25;15.70;92.40
59771;DHT22;45649;53.014;6.600;2022-09-09T02:03:08;15.70;92.20
59771;DHT22;45649;53.014;6.600;2022-09-09T02:05:40;15.70;92.60
59771;DHT22;45649;53.014;6.600;2022-09-09T02:08:20;15.70;92.20
59771;DHT22;45649;53.014;6.600;2022-09-09T02:13:35;15.70;92.40
59771;DHT22;45649;53.014;6.600;2022-09-09T02:19:14;15.70;92.40
59771;DHT22;45649;53.014;6.600;2022-09-09T02:21:43;15.70;92.80
59771;DHT22;45649;53.014;6.600;2022-09-09T02:24:12;15.80;92.50
59771;DHT22;45649;53.014;6.600;2022-09-09T02:26:42;15.80;92.80
59771;DHT22;45649;53.014;6.600;2022-09-09T02:29:13;15.80;92.80
59771;DHT22;45649;53.014;6.600;2022-09-09T02:31:41;15.80;92.90
59771;DHT22;45649;53.014;6.600;2022-09-09T02:34:09;15.90;93.00
59771;DHT22;45649;53.014;6.600;2022-09-09T02:36:37;15.90;92.90
59771;DHT22;45649;53.014;6.600;2022-09-09T02:39:07;16.10;93.40
59771;DHT22;45649;53.014;6.600;2022-09-09T02:41:36;16.00;93.90
59771;DHT22;45649;53.014;6.600;2022-09-09T02:44:08;16.00;92.90
59771;DHT22;45649;53.014;6.600;2022-09-09T02:52:52;15.90;93.20
59771;DHT22;45649;53.014;6.600;2022-09-09T02:55:46;16.00;92.90
59771;DHT22;45649;53.014;6.600;2022-09-09T02:58:14;16.00;92.90
59771;DHT22;45649;53.014;6.600;2022-09-09T03:00:45;16.00;92.90
59771;DHT22;45649;53.014;6.600;2022-09-09T03:03:11;16.00;93.70
59771;DHT22;45649;53.014;6.600;2022-09-09T03:05:37;16.00;93.40
59771;DHT22;45649;53.014;6.600;2022-09-09T03:08:05;16.00;93.30
59771;DHT22;45649;53.014;6.600;2022-09-09T03:10:32;16.00;94.20
59771;DHT22;45649;53.014;6.600;2022-09-09T03:12:57;16.00;93.90
59771;DHT22;45649;53.014;6.600;2022-09-09T03:15:23;16.00;93.40
59771;DHT22;45649;53.014;6.600;2022-09-09T03:17:49;16.00;94.20
59771;DHT22;45649;53.014;6.600;2022-09-09T03:20:15;16.00;94.40
59771;DHT22;45649;53.014;6.600;2022-09-09T03:22:41;16.00;93.90
59771;DHT22;45649;53.014;6.600;2022-09-09T03:25:07;16.00;93.90
59771;DHT22;45649;53.014;6.600;2022-09-09T03:27:33;16.10;93.80
59771;DHT22;45649;53.014;6.600;2022-09-09T03:29:58;16.00;94.20
59771;DHT22;45649;53.014;6.600;2022-09-09T03:32:24;16.00;94.10
59771;DHT22;45649;53.014;6.600;2022-09-09T03:34:52;16.00;93.70
59771;DHT22;45649;53.014;6.600;2022-09-09T03:37:20;16.10;94.50
59771;DHT22;45649;53.014;6.600;2022-09-09T03:39:46;16.00;94.60
59771;DHT22;45649;53.014;6.600;2022-09-09T03:42:13;15.90;94.70
59771;DHT22;45649;53.014;6.600;2022-09-09T03:44:45;15.90;94.70
59771;DHT22;45649;53.014;6.600;2022-09-09T03:47:16;15.90;94.70
59771;DHT22;45649;53.014;6.600;2022-09-09T03:49:42;15.90;94.50
59771;DHT22;45649;53.014;6.600;2022-09-09T03:52:09;15.90;94.40
59771;DHT22;45649;53.014;6.600;2022-09-09T03:54:34;15.90;94.00
59771;DHT22;45649;53.014;6.600;2022-09-09T03:57:01;15.90;94.10
59771;DHT22;45649;53.014;6.600;2022-09-09T03:59:27;15.90;94.10
59771;DHT22;45649;53.014;6.600;2022-09-09T04:01:53;15.90;93.70
59771;DHT22;45649;53.014;6.600;2022-09-09T04:04:18;15.90;94.10
59771;DHT22;45649;53.014;6.600;2022-09-09T04:06:46;15.90;94.10
59771;DHT22;45649;53.014;6.600;2022-09-09T04:09:12;15.80;94.10
59771;DHT22;45649;53.014;6.600;2022-09-09T04:11:38;15.80;94.60
59771;DHT22;45649;53.014;6.600;2022-09-09T04:14:03;15.70;94.70
59771;DHT22;45649;53.014;6.600;2022-09-09T04:16:32;15.70;94.80
59771;DHT22;45649;53.014;6.600;2022-09-09T04:18:58;15.70;94.60
59771;DHT22;45649;53.014;6.600;2022-09-09T04:21:25;15.60;95.00
59771;DHT22;45649;53.014;6.600;2022-09-09T04:23:51;15.60;94.80
59771;DHT22;45649;53.014;6.600;2022-09-09T04:26:17;15.80;95.00
59771;DHT22;45649;53.014;6.600;2022-09-09T04:28:43;15.70;95.30
59771;DHT22;45649;53.014;6.600;2022-09-09T04:31:29;15.70;95.00
59771;DHT22;45649;53.014;6.600;2022-09-09T04:33:54;15.70;95.00
59771;DHT22;45649;53.014;6.600;2022-09-09T04:36:20;15.60;94.80
59771;DHT22;45649;53.014;6.600;2022-09-09T04:38:46;15.60;95.10
59771;DHT22;45649;53.014;6.600;2022-09-09T04:41:14;15.70;94.90
59771;DHT22;45649;53.014;6.600;2022-09-09T04:43:42;15.60;95.10
59771;DHT22;45649;53.014;6.600;2022-09-09T04:46:08;15.60;95.00
59771;DHT22;45649;53.014;6.600;2022-09-09T04:48:34;15.60;94.40
59771;DHT22;45649;53.014;6.600;2022-09-09T04:51:02;15.60;94.40
59771;DHT22;45649;53.014;6.600;2022-09-09T04:53:30;15.60;94.70
59771;DHT22;45649;53.014;6.600;2022-09-09T04:58:28;15.50;94.70
59771;DHT22;45649;53.014;6.600;2022-09-09T05:00:54;15.50;94.90
59771;DHT22;45649;53.014;6.600;2022-09-09T05:03:19;15.50;95.10
59771;DHT22;45649;53.014;6.600;2022-09-09T05:05:45;15.40;95.30
59771;DHT22;45649;53.014;6.600;2022-09-09T05:08:11;15.40;95.40
59771;DHT22;45649;53.014;6.600;2022-09-09T05:10:38;15.50;95.20
59771;DHT22;45649;53.014;6.600;2022-09-09T05:13:04;15.50;95.10
59771;DHT22;45649;53.014;6.600;2022-09-09T05:15:32;15.50;94.80
59771;DHT22;45649;53.014;6.600;2022-09-09T05:17:59;15.50;94.00
59771;DHT22;45649;53.014;6.600;2022-09-09T05:20:26;15.50;94.00
59771;DHT22;45649;53.014;6.600;2022-09-09T05:22:56;15.50;94.50
59771;DHT22;45649;53.014;6.600;2022-09-09T05:25:22;15.50;94.40
59771;DHT22;45649;53.014;6.600;2022-09-09T05:27:51;15.50;94.70
59771;DHT22;45649;53.014;6.600;2022-09-09T05:30:19;15.50;94.70
59771;DHT22;45649;53.014;6.600;2022-09-09T05:32:45;15.40;94.90
59771;DHT22;45649;53.014;6.600;2022-09-09T05:35:10;15.50;94.90
59771;DHT22;45649;53.014;6.600;2022-09-09T05:37:36;15.50;94.40
59771;DHT22;45649;53.014;6.600;2022-09-09T05:40:02;15.50;94.10
59771;DHT22;45649;53.014;6.600;2022-09-09T05:42:31;15.50;94.40
59771;DHT22;45649;53.014;6.600;2022-09-09T05:44:57;15.50;94.40
59771;DHT22;45649;53.014;6.600;2022-09-09T05:47:23;15.50;94.90
59771;DHT22;45649;53.014;6.600;2022-09-09T05:49:49;15.50;94.60
59771;DHT22;45649;53.014;6.600;2022-09-09T05:52:15;15.50;94.50
59771;DHT22;45649;53.014;6.600;2022-09-09T05:54:40;15.60;94.60
59771;DHT22;45649;53.014;6.600;2022-09-09T05:57:08;15.60;94.30
59771;DHT22;45649;53.014;6.600;2022-09-09T05:59:33;15.60;94.20
59771;DHT22;45649;53.014;6.600;2022-09-09T06:01:59;15.60;94.20
59771;DHT22;45649;53.014;6.600;2022-09-09T06:04:25;15.50;94.10
59771;DHT22;45649;53.014;6.600;2022-09-09T06:06:51;15.50;93.80
59771;DHT22;45649;53.014;6.600;2022-09-09T06:09:16;15.40;94.30
59771;DHT22;45649;53.014;6.600;2022-09-09T06:11:42;15.40;94.70
59771;DHT22;45649;53.014;6.600;2022-09-09T06:14:09;15.50;94.00
59771;DHT22;45649;53.014;6.600;2022-09-09T06:16:35;15.50;94.40
59771;DHT22;45649;53.014;6.600;2022-09-09T06:19:03;15.50;93.70
59771;DHT22;45649;53.014;6.600;2022-09-09T06:21:34;15.60;93.70
59771;DHT22;45649;53.014;6.600;2022-09-09T06:24:01;15.50;93.90
59771;DHT22;45649;53.014;6.600;2022-09-09T06:26:30;15.50;94.10
59771;DHT22;45649;53.014;6.600;2022-09-09T06:28:56;15.50;94.30
59771;DHT22;45649;53.014;6.600;2022-09-09T06:31:25;15.50;93.60
59771;DHT22;45649;53.014;6.600;2022-09-09T06:33:54;15.60;93.70
59771;DHT22;45649;53.014;6.600;2022-09-09T06:36:23;15.60;94.20
59771;DHT22;45649;53.014;6.600;2022-09-09T06:38:49;15.60;93.60
59771;DHT22;45649;53.014;6.600;2022-09-09T06:41:17;15.70;94.10
59771;DHT22;45649;53.014;6.600;2022-09-09T06:43:44;15.60;94.10
59771;DHT22;45649;53.014;6.600;2022-09-09T06:46:15;15.80;93.60
59771;DHT22;45649;53.014;6.600;2022-09-09T06:48:42;15.80;93.20
59771;DHT22;45649;53.014;6.600;2022-09-09T06:51:15;15.80;94.00
59771;DHT22;45649;53.014;6.600;2022-09-09T06:53:43;15.70;94.40
59771;DHT22;45649;53.014;6.600;2022-09-09T06:58:44;15.70;94.30
59771;DHT22;45649;53.014;6.600;2022-09-09T07:01:16;15.80;94.40
59771;DHT22;45649;53.014;6.600;2022-09-09T07:03:44;15.80;94.20
59771;DHT22;45649;53.014;6.600;2022-09-09T07:06:15;15.90;93.80
59771;DHT22;45649;53.014;6.600;2022-09-09T07:08:43;15.90;94.10
59771;DHT22;45649;53.014;6.600;2022-09-09T07:11:09;16.00;93.80
59771;DHT22;45649;53.014;6.600;2022-09-09T07:13:36;16.00;93.80
59771;DHT22;45649;53.014;6.600;2022-09-09T07:16:14;16.00;94.00
59771;DHT22;45649;53.014;6.600;2022-09-09T07:18:40;16.00;94.40
59771;DHT22;45649;53.014;6.600;2022-09-09T07:21:08;16.10;94.30
59771;DHT22;45649;53.014;6.600;2022-09-09T07:23:34;16.10;94.00
59771;DHT22;45649;53.014;6.600;2022-09-09T07:26:02;16.10;94.20
59771;DHT22;45649;53.014;6.600;2022-09-09T07:28:28;16.10;94.50
59771;DHT22;45649;53.014;6.600;2022-09-09T07:30:58;16.20;93.40
59771;DHT22;45649;53.014;6.600;2022-09-09T07:33:25;16.20;93.50
59771;DHT22;45649;53.014;6.600;2022-09-09T07:35:52;16.20;93.70
59771;DHT22;45649;53.014;6.600;2022-09-09T07:38:19;16.10;93.40
59771;DHT22;45649;53.014;6.600;2022-09-09T07:40:45;16.20;93.20
59771;DHT22;45649;53.014;6.600;2022-09-09T07:43:11;16.20;93.50
59771;DHT22;45649;53.014;6.600;2022-09-09T07:45:37;16.30;93.10
59771;DHT22;45649;53.014;6.600;2022-09-09T07:48:03;16.30;93.60
59771;DHT22;45649;53.014;6.600;2022-09-09T07:50:30;16.30;93.20
59771;DHT22;45649;53.014;6.600;2022-09-09T07:52:56;16.30;93.20
59771;DHT22;45649;53.014;6.600;2022-09-09T07:55:22;16.30;93.80
59771;DHT22;45649;53.014;6.600;2022-09-09T07:57:53;16.40;93.50
59771;DHT22;45649;53.014;6.600;2022-09-09T08:00:19;16.40;93.70
59771;DHT22;45649;53.014;6.600;2022-09-09T08:02:47;16.40;93.90
59771;DHT22;45649;53.014;6.600;2022-09-09T08:05:14;16.50;94.10
59771;DHT22;45649;53.014;6.600;2022-09-09T08:07:40;16.50;93.80
59771;DHT22;45649;53.014;6.600;2022-09-09T08:10:06;16.60;94.30
59771;DHT22;45649;53.014;6.600;2022-09-09T08:12:32;16.60;93.60
59771;DHT22;45649;53.014;6.600;2022-09-09T08:14:58;16.80;93.40
59771;DHT22;45649;53.014;6.600;2022-09-09T08:17:24;16.80;94.40
59771;DHT22;45649;53.014;6.600;2022-09-09T08:19:50;16.70;94.10
59771;DHT22;45649;53.014;6.600;2022-09-09T08:22:15;16.80;93.50
59771;DHT22;45649;53.014;6.600;2022-09-09T08:24:41;16.80;93.90
59771;DHT22;45649;53.014;6.600;2022-09-09T08:27:07;16.80;93.80
59771;DHT22;45649;53.014;6.600;2022-09-09T08:29:35;16.90;93.60
59771;DHT22;45649;53.014;6.600;2022-09-09T08:32:01;16.90;94.00
59771;DHT22;45649;53.014;6.600;2022-09-09T08:34:27;17.00;94.40
59771;DHT22;45649;53.014;6.600;2022-09-09T08:36:56;17.00;94.00
59771;DHT22;45649;53.014;6.600;2022-09-09T08:39:22;17.10;92.70
59771;DHT22;45649;53.014;6.600;2022-09-09T08:47:28;17.30;93.40
59771;DHT22;45649;53.014;6.600;2022-09-09T08:55:54;17.40;92.70
59771;DHT22;45649;53.014;6.600;2022-09-09T08:58:32;17.40;92.10
59771;DHT22;45649;53.014;6.600;2022-09-09T09:12:15;17.70;91.40
59771;DHT22;45649;53.014;6.600;2022-09-09T09:14:42;17.80;91.20
59771;DHT22;45649;53.014;6.600;2022-09-09T09:17:12;17.90;91.70
59771;DHT22;45649;53.014;6.600;2022-09-09T09:19:41;17.90;91.60
59771;DHT22;45649;53.014;6.600;2022-09-09T09:27:32;18.10;91.50
59771;DHT22;45649;53.014;6.600;2022-09-09T09:29:59;18.20;91.90
59771;DHT22;45649;53.014;6.600;2022-09-09T09:32:28;18.10;91.60
59771;DHT22;45649;53.014;6.600;2022-09-09T09:34:56;18.10;91.80
59771;DHT22;45649;53.014;6.600;2022-09-09T09:37:30;18.10;91.60
59771;DHT22;45649;53.014;6.600;2022-09-09T09:40:16;18.10;91.50
59771;DHT22;45649;53.014;6.600;2022-09-09T09:42:55;18.10;91.60
59771;DHT22;45649;53.014;6.600;2022-09-09T09:45:44;18.10;91.20
59771;DHT22;45649;53.014;6.600;2022-09-09T09:48:11;18.20;91.00
59771;DHT22;45649;53.014;6.600;2022-09-09T09:53:24;18.20;90.60
59771;DHT22;45649;53.014;6.600;2022-09-09T09:55:59;18.40;90.70
59771;DHT22;45649;53.014;6.600;2022-09-09T09:58:27;18.60;90.70
59771;DHT22;45649;53.014;6.600;2022-09-09T10:00:56;18.80;90.00
59771;DHT22;45649;53.014;6.600;2022-09-09T10:03:28;18.80;89.90
59771;DHT22;45649;53.014;6.600;2022-09-09T10:05:54;18.70;89.90
59771;DHT22;45649;53.014;6.600;2022-09-09T10:08:23;18.80;90.20
59771;DHT22;45649;53.014;6.600;2022-09-09T10:13:57;18.90;89.30
59771;DHT22;45649;53.014;6.600;2022-09-09T10:19:35;18.90;88.00
59771;DHT22;45649;53.014;6.600;2022-09-09T10:22:19;18.80;89.20
59771;DHT22;45649;53.014;6.600;2022-09-09T10:25:01;18.80;89.20
59771;DHT22;45649;53.014;6.600;2022-09-09T10:30:23;19.10;88.40
59771;DHT22;45649;53.014;6.600;2022-09-09T10:35:47;19.20;86.80
59771;DHT22;45649;53.014;6.600;2022-09-09T10:39:00;19.20;85.70
59771;DHT22;45649;53.014;6.600;2022-09-09T10:41:24;19.20;86.10
59771;DHT22;45649;53.014;6.600;2022-09-09T10:46:56;19.40;86.20
59771;DHT22;45649;53.014;6.600;2022-09-09T10:55:13;19.40;82.80
59771;DHT22;45649;53.014;6.600;2022-09-09T10:57:56;19.50;83.70
59771;DHT22;45649;53.014;6.600;2022-09-09T11:03:03;19.70;83.50
59771;DHT22;45649;53.014;6.600;2022-09-09T11:08:19;19.80;82.80
59771;DHT22;45649;53.014;6.600;2022-09-09T11:18:47;19.70;83.30
59771;DHT22;45649;53.014;6.600;2022-09-09T11:21:22;19.70;83.00
59771;DHT22;45649;53.014;6.600;2022-09-09T11:23:59;19.90;82.30
59771;DHT22;45649;53.014;6.600;2022-09-09T11:26:37;20.00;81.70
59771;DHT22;45649;53.014;6.600;2022-09-09T11:37:37;20.00;81.10
59771;DHT22;45649;53.014;6.600;2022-09-09T11:40:25;19.90;81.80
59771;DHT22;45649;53.014;6.600;2022-09-09T11:45:39;19.70;84.50
59771;DHT22;45649;53.014;6.600;2022-09-09T11:48:26;19.60;85.30
59771;DHT22;45649;53.014;6.600;2022-09-09T11:51:31;19.70;85.50
59771;DHT22;45649;53.014;6.600;2022-09-09T11:56:54;19.80;84.90
59771;DHT22;45649;53.014;6.600;2022-09-09T11:59:21;19.80;85.30
59771;DHT22;45649;53.014;6.600;2022-09-09T12:02:24;19.70;84.60
59771;DHT22;45649;53.014;6.600;2022-09-09T12:05:17;19.70;83.90
59771;DHT22;45649;53.014;6.600;2022-09-09T12:08:04;19.60;85.40
59771;DHT22;45649;53.014;6.600;2022-09-09T12:10:36;19.60;87.00
59771;DHT22;45649;53.014;6.600;2022-09-09T12:13:24;19.60;87.60
59771;DHT22;45649;53.014;6.600;2022-09-09T12:15:58;19.70;87.70
59771;DHT22;45649;53.014;6.600;2022-09-09T12:23:52;19.70;87.20
59771;DHT22;45649;53.014;6.600;2022-09-09T12:26:34;19.70;87.20
59771;DHT22;45649;53.014;6.600;2022-09-09T12:31:34;19.90;86.70
59771;DHT22;45649;53.014;6.600;2022-09-09T12:34:16;20.00;85.10
59771;DHT22;45649;53.014;6.600;2022-09-09T12:36:44;20.10;84.20
59771;DHT22;45649;53.014;6.600;2022-09-09T12:39:19;20.30;84.10
59771;DHT22;45649;53.014;6.600;2022-09-09T12:41:53;20.30;82.70
59771;DHT22;45649;53.014;6.600;2022-09-09T12:44:24;20.40;82.10
59771;DHT22;45649;53.014;6.600;2022-09-09T12:46:51;20.50;82.00
59771;DHT22;45649;53.014;6.600;2022-09-09T12:49:34;20.40;81.00
59771;DHT22;45649;53.014;6.600;2022-09-09T12:52:24;20.50;80.60
59771;DHT22;45649;53.014;6.600;2022-09-09T12:54:52;20.60;79.50
59771;DHT22;45649;53.014;6.600;2022-09-09T12:57:20;20.70;80.20
59771;DHT22;45649;53.014;6.600;2022-09-09T12:59:48;20.70;80.00
59771;DHT22;45649;53.014;6.600;2022-09-09T13:04:44;20.80;80.20
59771;DHT22;45649;53.014;6.600;2022-09-09T13:07:13;20.80;79.70
59771;DHT22;45649;53.014;6.600;2022-09-09T13:09:39;20.90;80.00
59771;DHT22;45649;53.014;6.600;2022-09-09T13:12:15;21.00;79.60
59771;DHT22;45649;53.014;6.600;2022-09-09T13:14:44;20.90;78.60
59771;DHT22;45649;53.014;6.600;2022-09-09T13:17:23;20.80;78.30
59771;DHT22;45649;53.014;6.600;2022-09-09T13:19:50;20.70;78.80
59771;DHT22;45649;53.014;6.600;2022-09-09T13:22:29;20.60;79.70
59771;DHT22;45649;53.014;6.600;2022-09-09T13:27:56;20.30;84.20
59771;DHT22;45649;53.014;6.600;2022-09-09T13:30:42;20.30;86.70
59771;DHT22;45649;53.014;6.600;2022-09-09T13:36:12;20.50;86.60
59771;DHT22;45649;53.014;6.600;2022-09-09T13:41:42;20.60;86.70
59771;DHT22;45649;53.014;6.600;2022-09-09T13:44:38;20.60;85.50
59771;DHT22;45649;53.014;6.600;2022-09-09T13:47:19;20.40;85.40
59771;DHT22;45649;53.014;6.600;2022-09-09T13:49:48;20.30;86.20
59771;DHT22;45649;53.014;6.600;2022-09-09T13:52:18;20.30;86.60
59771;DHT22;45649;53.014;6.600;2022-09-09T13:54:51;20.30;86.70
59771;DHT22;45649;53.014;6.600;2022-09-09T13:57:19;20.30;87.70
59771;DHT22;45649;53.014;6.600;2022-09-09T13:59:46;20.30;86.70
59771;DHT22;45649;53.014;6.600;2022-09-09T14:02:13;20.40;86.60
59771;DHT22;45649;53.014;6.600;2022-09-09T14:04:39;20.50;86.10
59771;DHT22;45649;53.014;6.600;2022-09-09T14:07:12;20.50;85.80
59771;DHT22;45649;53.014;6.600;2022-09-09T14:09:39;20.40;84.60
59771;DHT22;45649;53.014;6.600;2022-09-09T14:12:08;20.30;84.80
59771;DHT22;45649;53.014;6.600;2022-09-09T14:14:35;20.30;85.20
59771;DHT22;45649;53.014;6.600;2022-09-09T14:17:01;20.10;85.20
59771;DHT22;45649;53.014;6.600;2022-09-09T14:19:27;19.90;86.90
59771;DHT22;45649;53.014;6.600;2022-09-09T14:21:52;19.60;88.60
59771;DHT22;45649;53.014;6.600;2022-09-09T14:24:18;19.70;89.40
59771;DHT22;45649;53.014;6.600;2022-09-09T14:26:44;19.70;89.90
59771;DHT22;45649;53.014;6.600;2022-09-09T14:29:10;19.70;90.10
59771;DHT22;45649;53.014;6.600;2022-09-09T14:31:36;19.80;90.00
59771;DHT22;45649;53.014;6.600;2022-09-09T14:34:01;19.90;89.70
59771;DHT22;45649;53.014;6.600;2022-09-09T14:36:27;20.00;90.00
59771;DHT22;45649;53.014;6.600;2022-09-09T14:38:53;20.10;89.90
59771;DHT22;45649;53.014;6.600;2022-09-09T14:41:19;20.10;89.50
59771;DHT22;45649;53.014;6.600;2022-09-09T14:43:46;20.20;89.60
59771;DHT22;45649;53.014;6.600;2022-09-09T14:46:16;20.30;89.70
59771;DHT22;45649;53.014;6.600;2022-09-09T14:48:42;20.40;88.90
59771;DHT22;45649;53.014;6.600;2022-09-09T14:51:15;20.30;86.90
59771;DHT22;45649;53.014;6.600;2022-09-09T14:53:42;20.30;87.60
59771;DHT22;45649;53.014;6.600;2022-09-09T14:56:14;20.30;87.60
59771;DHT22;45649;53.014;6.600;2022-09-09T14:58:40;20.40;87.80
59771;DHT22;45649;53.014;6.600;2022-09-09T15:01:11;20.30;87.40
59771;DHT22;45649;53.014;6.600;2022-09-09T15:03:38;20.30;87.30
59771;DHT22;45649;53.014;6.600;2022-09-09T15:06:09;20.30;87.70
59771;DHT22;45649;53.014;6.600;2022-09-09T15:08:36;20.30;87.20
59771;DHT22;45649;53.014;6.600;2022-09-09T15:11:04;20.30;87.10
59771;DHT22;45649;53.014;6.600;2022-09-09T15:13:30;20.40;86.80
59771;DHT22;45649;53.014;6.600;2022-09-09T15:16:06;20.50;86.80
59771;DHT22;45649;53.014;6.600;2022-09-09T15:18:33;20.60;86.70
59771;DHT22;45649;53.014;6.600;2022-09-09T15:21:00;20.60;86.20
59771;DHT22;45649;53.014;6.600;2022-09-09T15:23:27;20.60;86.30
59771;DHT22;45649;53.014;6.600;2022-09-09T15:25:53;20.60;86.60
59771;DHT22;45649;53.014;6.600;2022-09-09T15:28:20;20.60;86.50
59771;DHT22;45649;53.014;6.600;2022-09-09T15:30:50;20.60;86.30
59771;DHT22;45649;53.014;6.600;2022-09-09T15:33:18;20.60;86.10
59771;DHT22;45649;53.014;6.600;2022-09-09T15:35:44;20.60;86.20
59771;DHT22;45649;53.014;6.600;2022-09-09T15:38:09;20.50;86.70
59771;DHT22;45649;53.014;6.600;2022-09-09T15:40:35;20.40;86.70
59771;DHT22;45649;53.014;6.600;2022-09-09T15:43:01;20.40;85.80
59771;DHT22;45649;53.014;6.600;2022-09-09T15:45:28;20.20;86.70
59771;DHT22;45649;53.014;6.600;2022-09-09T15:47:57;20.10;87.30
59771;DHT22;45649;53.014;6.600;2022-09-09T15:50:23;20.10;87.50
59771;DHT22;45649;53.014;6.600;2022-09-09T15:52:49;20.10;87.70
59771;DHT22;45649;53.014;6.600;2022-09-09T15:55:15;20.10;87.70
59771;DHT22;45649;53.014;6.600;2022-09-09T15:57:40;20.00;86.70
59771;DHT22;45649;53.014;6.600;2022-09-09T16:00:07;19.90;87.30
59771;DHT22;45649;53.014;6.600;2022-09-09T16:02:33;19.90;87.30
59771;DHT22;45649;53.014;6.600;2022-09-09T16:04:58;19.90;87.10
59771;DHT22;45649;53.014;6.600;2022-09-09T16:07:26;19.80;86.40
59771;DHT22;45649;53.014;6.600;2022-09-09T16:09:52;19.70;85.90
59771;DHT22;45649;53.014;6.600;2022-09-09T16:12:18;19.70;85.60
59771;DHT22;45649;53.014;6.600;2022-09-09T16:14:44;19.70;86.00
59771;DHT22;45649;53.014;6.600;2022-09-09T16:17:10;19.60;85.80
59771;DHT22;45649;53.014;6.600;2022-09-09T16:19:37;19.60;86.40
59771;DHT22;45649;53.014;6.600;2022-09-09T16:22:03;19.60;87.00
59771;DHT22;45649;53.014;6.600;2022-09-09T16:24:30;19.50;87.40
59771;DHT22;45649;53.014;6.600;2022-09-09T16:26:58;19.50;87.90
59771;DHT22;45649;53.014;6.600;2022-09-09T16:29:24;19.50;87.90
59771;DHT22;45649;53.014;6.600;2022-09-09T16:31:53;19.40;88.20
59771;DHT22;45649;53.014;6.600;2022-09-09T16:34:20;19.40;88.30
59771;DHT22;45649;53.014;6.600;2022-09-09T16:36:47;19.30;88.20
59771;DHT22;45649;53.014;6.600;2022-09-09T16:39:19;19.30;88.50
59771;DHT22;45649;53.014;6.600;2022-09-09T16:41:46;19.20;88.60
59771;DHT22;45649;53.014;6.600;2022-09-09T16:44:14;19.20;88.60
59771;DHT22;45649;53.014;6.600;2022-09-09T16:46:42;19.20;88.50
59771;DHT22;45649;53.014;6.600;2022-09-09T16:49:10;19.20;88.60
59771;DHT22;45649;53.014;6.600;2022-09-09T16:51:50;19.30;88.70
59771;DHT22;45649;53.014;6.600;2022-09-09T16:54:18;19.30;88.70
59771;DHT22;45649;53.014;6.600;2022-09-09T16:56:47;19.30;88.80
59771;DHT22;45649;53.014;6.600;2022-09-09T16:59:15;19.30;88.90
59771;DHT22;45649;53.014;6.600;2022-09-09T17:01:42;19.30;88.80
59771;DHT22;45649;53.014;6.600;2022-09-09T17:04:20;19.30;88.80
59771;DHT22;45649;53.014;6.600;2022-09-09T17:06:50;19.30;88.80
59771;DHT22;45649;53.014;6.600;2022-09-09T17:09:17;19.30;88.60
59771;DHT22;45649;53.014;6.600;2022-09-09T17:11:44;19.30;88.50
59771;DHT22;45649;53.014;6.600;2022-09-09T17:14:16;19.30;88.40
59771;DHT22;45649;53.014;6.600;2022-09-09T17:16:42;19.30;88.90
59771;DHT22;45649;53.014;6.600;2022-09-09T17:19:09;19.40;87.60
59771;DHT22;45649;53.014;6.600;2022-09-09T17:21:36;19.30;88.00
59771;DHT22;45649;53.014;6.600;2022-09-09T17:24:02;19.20;88.30
59771;DHT22;45649;53.014;6.600;2022-09-09T17:26:30;19.20;88.60
59771;DHT22;45649;53.014;6.600;2022-09-09T17:28:57;19.20;88.70
59771;DHT22;45649;53.014;6.600;2022-09-09T17:31:25;19.20;88.60
59771;DHT22;45649;53.014;6.600;2022-09-09T17:33:52;19.20;88.60
59771;DHT22;45649;53.014;6.600;2022-09-09T17:36:28;19.10;88.70
59771;DHT22;45649;53.014;6.600;2022-09-09T17:38:57;19.20;88.90
59771;DHT22;45649;53.014;6.600;2022-09-09T17:43:55;19.10;88.90
59771;DHT22;45649;53.014;6.600;2022-09-09T17:46:31;19.10;89.00
59771;DHT22;45649;53.014;6.600;2022-09-09T17:49:03;19.10;89.30
59771;DHT22;45649;53.014;6.600;2022-09-09T17:51:30;19.10;88.90
59771;DHT22;45649;53.014;6.600;2022-09-09T17:54:00;19.10;88.80
59771;DHT22;45649;53.014;6.600;2022-09-09T17:56:27;19.10;88.50
59771;DHT22;45649;53.014;6.600;2022-09-09T17:58:56;19.10;88.50
59771;DHT22;45649;53.014;6.600;2022-09-09T18:01:28;19.10;88.40
59771;DHT22;45649;53.014;6.600;2022-09-09T18:03:56;19.00;88.70
59771;DHT22;45649;53.014;6.600;2022-09-09T18:06:25;19.00;88.70
59771;DHT22;45649;53.014;6.600;2022-09-09T18:08:59;19.00;88.80
59771;DHT22;45649;53.014;6.600;2022-09-09T18:11:30;19.00;88.80
59771;DHT22;45649;53.014;6.600;2022-09-09T18:13:59;19.00;88.20
59771;DHT22;45649;53.014;6.600;2022-09-09T18:16:26;18.90;88.40
59771;DHT22;45649;53.014;6.600;2022-09-09T18:18:55;19.00;88.10
59771;DHT22;45649;53.014;6.600;2022-09-09T18:21:23;19.00;88.20